Time;durP1;ratioP1;P1;durP2;ratioP2;P2;SDS_P1;SDS_P2;PMS_P1;PMS_P2;Temp;Humidity;BMP_temperature;BMP_pressure;BME280_temperature;BME280_humidity;BME280_pressure;Samples;Min_cycle;Max_cycle;Signal;HPM_P1;HPM_P2
2022/10/24 00:00:30;;;;;;;4.18;1.00;;;;;;;;;;4881637;29;20045;-70
2022/10/24 00:02:56;;;;;;;3.55;0.80;;;;;;;;;;4881285;29;20049;-70
2022/10/24 00:05:22;;;;;;;2.55;1.05;;;;;;;;;;4881589;29;20049;-70
2022/10/24 00:07:49;;;;;;;5.75;1.00;;;;;;;;;;4880062;29;20053;-70
2022/10/24 00:10:16;;;;;;;2.42;0.85;;;;;;;;;;4881552;29;20057;-70
2022/10/24 00:12:42;;;;;;;3.08;0.90;;;;;;;;;;4881428;29;20477;-70
2022/10/24 00:15:09;;;;;;;2.22;0.75;;;;;;;;;;4880915;29;20053;-70
2022/10/24 00:17:35;;;;;;;3.55;0.80;;;;;;;;;;4881145;29;20053;-70
2022/10/24 00:20:01;;;;;;;2.95;0.90;;;;;;;;;;4880203;29;20091;-70
2022/10/24 00:22:27;;;;;;;3.30;0.80;;;;;;;;;;4880235;29;20048;-70
2022/10/24 00:24:53;;;;;;;2.05;0.88;;;;;;;;;;4880576;29;20052;-70
2022/10/24 00:27:19;;;;;;;1.90;0.80;;;;;;;;;;4881130;29;20184;-70
2022/10/24 00:29:46;;;;;;;2.95;0.90;;;;;;;;;;4864668;29;20494;-70
2022/10/24 00:32:13;;;;;;;2.90;0.90;;;;;;;;;;4880975;29;20087;-70
2022/10/24 00:34:39;;;;;;;3.15;0.77;;;;;;;;;;4864733;29;20055;-70
2022/10/24 00:37:05;;;;;;;3.22;0.85;;;;;;;;;;4881187;29;20375;-70
2022/10/24 00:39:32;;;;;;;4.32;0.70;;;;;;;;;;4880539;29;20049;-70
2022/10/24 00:41:59;;;;;;;1.95;0.80;;;;;;;;;;4880800;29;20101;-70
2022/10/24 00:44:26;;;;;;;2.60;0.85;;;;;;;;;;4879691;29;20132;-71
2022/10/24 00:46:55;;;;;;;2.72;0.80;;;;;;;;;;4879687;29;20387;-70
2022/10/24 00:49:59;;;;;;;3.53;0.70;;;;;;;;;;4879948;29;20052;-70
2022/10/24 00:52:27;;;;;;;2.78;0.75;;;;;;;;;;4841720;29;20050;-70
2022/10/24 00:54:55;;;;;;;2.50;0.80;;;;;;;;;;4874032;29;20200;-70
2022/10/24 00:57:26;;;;;;;3.58;1.00;;;;;;;;;;4880460;29;20550;-70
2022/10/24 00:59:54;;;;;;;2.97;1.00;;;;;;;;;;4880647;29;20049;-70
2022/10/24 01:02:21;;;;;;;4.47;0.93;;;;;;;;;;4880476;29;20088;-70
2022/10/24 01:04:47;;;;;;;3.67;0.90;;;;;;;;;;4879302;29;20506;-70
2022/10/24 01:07:16;;;;;;;4.22;0.80;;;;;;;;;;4879628;29;20403;-70
2022/10/24 01:09:42;;;;;;;3.00;0.77;;;;;;;;;;4879505;29;20143;-70
2022/10/24 01:12:16;;;;;;;1.90;1.00;;;;;;;;;;4880491;29;20129;-70
2022/10/24 01:15:02;;;;;;;2.70;0.80;;;;;;;;;;4879373;29;20391;-70
2022/10/24 01:17:34;;;;;;;4.43;1.30;;;;;;;;;;4878717;29;20136;-70
2022/10/24 01:20:10;;;;;;;2.42;0.80;;;;;;;;;;4880286;29;20091;-70
2022/10/24 01:22:53;;;;;;;2.97;0.80;;;;;;;;;;4880351;29;20045;-70
2022/10/24 01:25:25;;;;;;;3.28;0.70;;;;;;;;;;4863346;29;20561;-70
2022/10/24 01:27:54;;;;;;;2.35;0.80;;;;;;;;;;4879047;29;20100;-70
2022/10/24 01:30:20;;;;;;;3.13;0.80;;;;;;;;;;4880121;29;20097;-71
2022/10/24 01:32:56;;;;;;;2.05;0.73;;;;;;;;;;4880343;29;20469;-70
2022/10/24 01:35:41;;;;;;;3.13;0.90;;;;;;;;;;4879412;29;20065;-70
2022/10/24 01:38:07;;;;;;;2.78;0.90;;;;;;;;;;4879137;29;20132;-70
2022/10/24 01:40:35;;;;;;;3.50;0.70;;;;;;;;;;4878780;29;20088;-70
2022/10/24 01:43:06;;;;;;;4.93;1.20;;;;;;;;;;4878795;29;20454;-70
2022/10/24 01:45:34;;;;;;;2.75;0.60;;;;;;;;;;4879610;29;20037;-70
2022/10/24 01:48:03;;;;;;;1.63;0.65;;;;;;;;;;4879990;29;20506;-70
2022/10/24 01:50:29;;;;;;;3.00;0.77;;;;;;;;;;4879851;29;20136;-70
2022/10/24 01:52:57;;;;;;;4.38;0.80;;;;;;;;;;4879792;29;20063;-70
2022/10/24 01:55:23;;;;;;;2.70;0.70;;;;;;;;;;4879652;29;20136;-70
2022/10/24 01:57:49;;;;;;;2.33;1.15;;;;;;;;;;4879593;29;20053;-70
2022/10/24 02:00:17;;;;;;;3.38;0.63;;;;;;;;;;4878819;29;20099;-70
2022/10/24 02:02:46;;;;;;;4.57;1.10;;;;;;;;;;4879642;29;20041;-70
2022/10/24 02:05:15;;;;;;;3.00;0.80;;;;;;;;;;4879658;29;20123;-70
2022/10/24 02:07:43;;;;;;;2.95;0.90;;;;;;;;;;4863112;29;20045;-70
2022/10/24 02:10:16;;;;;;;1.92;0.98;;;;;;;;;;4877566;29;20498;-70
2022/10/24 02:12:46;;;;;;;4.22;0.90;;;;;;;;;;4880067;29;20053;-70
2022/10/24 02:15:15;;;;;;;4.10;0.90;;;;;;;;;;4879551;29;20060;-70
2022/10/24 02:17:41;;;;;;;3.30;1.15;;;;;;;;;;4879534;29;20272;-70
2022/10/24 02:20:07;;;;;;;4.20;1.17;;;;;;;;;;4879687;29;20045;-70
2022/10/24 02:22:57;;;;;;;2.78;1.08;;;;;;;;;;4879149;29;20136;-71
2022/10/24 02:25:30;;;;;;;3.17;1.00;;;;;;;;;;4878736;29;20095;-70
2022/10/24 02:27:59;;;;;;;3.72;0.93;;;;;;;;;;4878301;29;20056;-70
2022/10/24 02:30:26;;;;;;;3.40;1.02;;;;;;;;;;4879388;29;20092;-70
2022/10/24 02:32:54;;;;;;;4.00;0.80;;;;;;;;;;4878438;29;20080;-71
2022/10/24 02:35:24;;;;;;;3.45;1.00;;;;;;;;;;4879206;29;20056;-70
2022/10/24 02:37:52;;;;;;;3.42;1.00;;;;;;;;;;4881982;29;20052;-70
2022/10/24 02:40:19;;;;;;;4.05;0.93;;;;;;;;;;4882588;29;20053;-70
2022/10/24 02:42:46;;;;;;;6.30;1.63;;;;;;;;;;4881981;29;20049;-70
2022/10/24 02:45:14;;;;;;;5.68;1.40;;;;;;;;;;4881796;29;20502;-70
2022/10/24 02:47:42;;;;;;;4.53;1.23;;;;;;;;;;4882943;29;20172;-70
2022/10/24 02:50:08;;;;;;;4.30;1.13;;;;;;;;;;4883112;29;20093;-70
2022/10/24 02:52:36;;;;;;;2.67;1.20;;;;;;;;;;4882104;29;20109;-70
2022/10/24 02:55:02;;;;;;;4.15;1.10;;;;;;;;;;4883005;29;20051;-70
2022/10/24 02:57:28;;;;;;;6.15;1.10;;;;;;;;;;4882841;29;20055;-70
2022/10/24 02:59:55;;;;;;;3.08;1.00;;;;;;;;;;4881817;29;20427;-70
2022/10/24 03:02:21;;;;;;;4.85;1.10;;;;;;;;;;4866023;29;20146;-70
2022/10/24 03:04:48;;;;;;;6.03;1.20;;;;;;;;;;4882774;29;20060;-70
2022/10/24 03:07:14;;;;;;;3.38;1.30;;;;;;;;;;4881724;29;20049;-70
2022/10/24 03:09:40;;;;;;;4.13;1.20;;;;;;;;;;4880774;29;20413;-70
2022/10/24 03:12:06;;;;;;;5.05;1.23;;;;;;;;;;4881600;29;20478;-70
2022/10/24 03:14:33;;;;;;;3.63;1.00;;;;;;;;;;4881554;29;20049;-70
2022/10/24 03:16:59;;;;;;;4.07;1.10;;;;;;;;;;4881716;29;20462;-70
2022/10/24 03:19:25;;;;;;;3.85;1.30;;;;;;;;;;4881691;29;20093;-70
2022/10/24 03:21:51;;;;;;;4.32;1.17;;;;;;;;;;4881477;29;20474;-70
2022/10/24 03:24:17;;;;;;;3.05;1.48;;;;;;;;;;4866075;29;20059;-70
2022/10/24 03:26:43;;;;;;;5.10;1.20;;;;;;;;;;4881113;29;20088;-70
2022/10/24 03:29:12;;;;;;;2.60;1.23;;;;;;;;;;4881054;29;20383;-70
2022/10/24 03:31:39;;;;;;;4.22;1.33;;;;;;;;;;4882020;29;20521;-70
2022/10/24 03:34:05;;;;;;;3.08;1.63;;;;;;;;;;4882329;29;20077;-70
2022/10/24 03:36:31;;;;;;;5.13;1.15;;;;;;;;;;4881059;29;20447;-70
2022/10/24 03:38:57;;;;;;;4.65;1.13;;;;;;;;;;4881548;29;20048;-71
2022/10/24 03:41:23;;;;;;;3.58;1.10;;;;;;;;;;4881278;29;20139;-70
2022/10/24 03:43:49;;;;;;;3.53;1.20;;;;;;;;;;4880705;29;20459;-70
2022/10/24 03:46:18;;;;;;;3.70;1.40;;;;;;;;;;4882093;29;20054;-70
2022/10/24 03:48:44;;;;;;;3.58;1.33;;;;;;;;;;4880471;29;20139;-70
2022/10/24 03:51:10;;;;;;;4.25;1.13;;;;;;;;;;4882192;29;20113;-70
2022/10/24 03:53:36;;;;;;;4.03;1.10;;;;;;;;;;4881822;29;20049;-70
2022/10/24 03:56:03;;;;;;;2.03;1.30;;;;;;;;;;4881769;29;20135;-70
2022/10/24 03:58:29;;;;;;;5.10;1.90;;;;;;;;;;4880870;29;20472;-70
2022/10/24 04:00:57;;;;;;;5.82;1.42;;;;;;;;;;4880554;29;20097;-70
2022/10/24 04:03:24;;;;;;;2.92;1.42;;;;;;;;;;4880742;29;20053;-70
2022/10/24 04:05:50;;;;;;;4.65;1.45;;;;;;;;;;4881461;29;20459;-70
2022/10/24 04:08:16;;;;;;;6.40;1.33;;;;;;;;;;4880859;29;20458;-70
2022/10/24 04:10:42;;;;;;;5.93;1.98;;;;;;;;;;4865154;29;20120;-70
2022/10/24 04:13:08;;;;;;;3.10;1.30;;;;;;;;;;4881318;29;20400;-70
2022/10/24 04:15:34;;;;;;;5.50;1.58;;;;;;;;;;4881706;29;20525;-70
2022/10/24 04:18:01;;;;;;;2.33;1.27;;;;;;;;;;4881536;29;20200;-70
2022/10/24 04:20:27;;;;;;;3.85;1.30;;;;;;;;;;4881311;29;20060;-70
2022/10/24 04:22:53;;;;;;;2.88;1.20;;;;;;;;;;4880556;29;20078;-70
2022/10/24 04:25:19;;;;;;;4.22;1.25;;;;;;;;;;4880081;29;20068;-70
2022/10/24 04:27:45;;;;;;;5.07;1.25;;;;;;;;;;4881010;29;20333;-69
2022/10/24 04:30:12;;;;;;;3.58;1.15;;;;;;;;;;4881242;29;20104;-69
2022/10/24 04:32:38;;;;;;;4.75;1.10;;;;;;;;;;4881254;29;20049;-70
2022/10/24 04:35:05;;;;;;;3.53;0.98;;;;;;;;;;4880215;29;20049;-69
2022/10/24 04:37:31;;;;;;;2.30;1.10;;;;;;;;;;4880202;29;20185;-69
2022/10/24 04:39:57;;;;;;;4.90;1.27;;;;;;;;;;4880419;29;20049;-69
2022/10/24 04:42:24;;;;;;;4.13;1.10;;;;;;;;;;4880858;29;20109;-69
2022/10/24 04:44:50;;;;;;;4.65;1.15;;;;;;;;;;4881229;29;20063;-69
2022/10/24 04:47:16;;;;;;;4.28;1.20;;;;;;;;;;4880860;29;20077;-69
2022/10/24 04:49:42;;;;;;;4.63;1.00;;;;;;;;;;4879650;29;20056;-69
2022/10/24 04:52:09;;;;;;;4.07;1.10;;;;;;;;;;4880787;29;20105;-69
2022/10/24 04:54:35;;;;;;;3.80;1.48;;;;;;;;;;4879850;29;20080;-69
2022/10/24 04:57:01;;;;;;;4.68;0.95;;;;;;;;;;4880587;29;20105;-69
2022/10/24 04:59:27;;;;;;;2.83;0.98;;;;;;;;;;4880638;29;20049;-69
2022/10/24 05:01:53;;;;;;;5.07;1.20;;;;;;;;;;4863336;29;20410;-69
2022/10/24 05:04:20;;;;;;;2.50;1.10;;;;;;;;;;4864173;29;20473;-70
2022/10/24 05:06:46;;;;;;;5.47;1.10;;;;;;;;;;4880628;29;20049;-70
2022/10/24 05:09:12;;;;;;;5.65;1.25;;;;;;;;;;4880123;29;20197;-70
2022/10/24 05:11:38;;;;;;;4.10;1.00;;;;;;;;;;4880191;29;20057;-69
2022/10/24 05:14:04;;;;;;;5.03;0.93;;;;;;;;;;4879519;29;20458;-70
2022/10/24 05:16:30;;;;;;;3.05;1.05;;;;;;;;;;4880228;29;20498;-69
2022/10/24 05:18:57;;;;;;;6.57;1.10;;;;;;;;;;4880143;29;20454;-69
2022/10/24 05:21:23;;;;;;;1.88;0.80;;;;;;;;;;4880243;29;20068;-70
2022/10/24 05:23:49;;;;;;;1.95;0.80;;;;;;;;;;4880208;29;20136;-69
2022/10/24 05:26:15;;;;;;;1.85;0.80;;;;;;;;;;4863345;29;20060;-69
2022/10/24 05:28:41;;;;;;;3.45;0.95;;;;;;;;;;4879261;29;20049;-69
2022/10/24 05:31:07;;;;;;;3.53;0.77;;;;;;;;;;4878888;29;20509;-69
2022/10/24 05:33:33;;;;;;;3.78;0.95;;;;;;;;;;4878894;29;20065;-70
2022/10/24 05:35:59;;;;;;;2.97;0.77;;;;;;;;;;4879859;29;20482;-69
2022/10/24 05:38:25;;;;;;;4.65;0.88;;;;;;;;;;4879453;29;20048;-69
2022/10/24 05:40:52;;;;;;;3.08;0.80;;;;;;;;;;4878783;29;20052;-69
2022/10/24 05:43:18;;;;;;;4.68;0.93;;;;;;;;;;4879005;29;20064;-70
2022/10/24 05:45:46;;;;;;;2.42;0.90;;;;;;;;;;4878802;29;20482;-69
2022/10/24 05:48:12;;;;;;;2.22;0.88;;;;;;;;;;4879880;29;20096;-69
2022/10/24 05:50:38;;;;;;;3.17;0.60;;;;;;;;;;4879933;29;20045;-69
2022/10/24 05:53:07;;;;;;;2.88;0.90;;;;;;;;;;4879730;29;20096;-70
2022/10/24 05:55:34;;;;;;;6.95;0.90;;;;;;;;;;4878563;29;20106;-70
2022/10/24 05:58:00;;;;;;;3.13;0.80;;;;;;;;;;4879822;29;20136;-69
2022/10/24 06:00:26;;;;;;;3.72;0.80;;;;;;;;;;4879689;29;20220;-70
2022/10/24 06:02:52;;;;;;;2.72;0.70;;;;;;;;;;4879507;29;20049;-69
2022/10/24 06:05:18;;;;;;;3.45;0.70;;;;;;;;;;4878856;29;20100;-69
2022/10/24 06:07:45;;;;;;;4.07;0.80;;;;;;;;;;4878484;29;20049;-70
2022/10/24 06:10:11;;;;;;;3.47;0.80;;;;;;;;;;4879222;29;20088;-70
2022/10/24 06:12:38;;;;;;;3.78;1.05;;;;;;;;;;4879226;29;20053;-69
2022/10/24 06:15:06;;;;;;;4.72;0.80;;;;;;;;;;4879432;29;20516;-70
2022/10/24 06:17:32;;;;;;;2.97;0.80;;;;;;;;;;4879928;29;20128;-69
2022/10/24 06:19:58;;;;;;;2.78;0.80;;;;;;;;;;4879472;29;20059;-69
2022/10/24 06:22:26;;;;;;;7.10;0.80;;;;;;;;;;4879096;29;20101;-70
2022/10/24 06:24:52;;;;;;;5.18;0.82;;;;;;;;;;4878640;29;20045;-70
2022/10/24 06:27:18;;;;;;;2.97;0.70;;;;;;;;;;4879234;29;20402;-69
2022/10/24 06:29:45;;;;;;;2.55;0.50;;;;;;;;;;4879307;29;20052;-69
2022/10/24 06:32:11;;;;;;;4.28;0.80;;;;;;;;;;4879200;29;20502;-69
2022/10/24 06:34:37;;;;;;;2.05;0.63;;;;;;;;;;4878186;29;20060;-70
2022/10/24 06:37:03;;;;;;;4.15;0.77;;;;;;;;;;4878119;29;20056;-70
2022/10/24 06:39:29;;;;;;;3.55;1.08;;;;;;;;;;4877889;29;20060;-69
2022/10/24 06:41:55;;;;;;;4.20;0.70;;;;;;;;;;4879342;29;20501;-69
2022/10/24 06:44:21;;;;;;;2.75;0.60;;;;;;;;;;4877900;29;20390;-69
2022/10/24 06:46:47;;;;;;;3.47;0.70;;;;;;;;;;4879266;29;20053;-70
2022/10/24 06:49:13;;;;;;;2.58;0.60;;;;;;;;;;4878235;29;20053;-69
2022/10/24 06:51:40;;;;;;;1.90;0.60;;;;;;;;;;4879046;29;20511;-70
2022/10/24 06:54:06;;;;;;;2.55;0.65;;;;;;;;;;4879294;29;20071;-70
2022/10/24 06:56:32;;;;;;;4.40;1.08;;;;;;;;;;4879196;29;20049;-70
2022/10/24 06:58:58;;;;;;;7.38;0.70;;;;;;;;;;4879166;29;20049;-69
2022/10/24 07:01:26;;;;;;;1.85;0.70;;;;;;;;;;4877923;29;20049;-69
2022/10/24 07:03:52;;;;;;;4.15;0.70;;;;;;;;;;4879055;29;20049;-69
2022/10/24 07:06:20;;;;;;;3.83;0.80;;;;;;;;;;4879094;29;20144;-69
2022/10/24 07:08:46;;;;;;;2.83;0.70;;;;;;;;;;4877489;29;20374;-69
2022/10/24 07:11:12;;;;;;;2.92;0.68;;;;;;;;;;4879154;29;20057;-69
2022/10/24 07:13:39;;;;;;;5.57;0.70;;;;;;;;;;4878954;29;20045;-69
2022/10/24 07:16:06;;;;;;;2.92;0.80;;;;;;;;;;4878935;29;20092;-69
2022/10/24 07:18:32;;;;;;;2.15;0.70;;;;;;;;;;4877631;29;20053;-69
2022/10/24 07:21:02;;;;;;;4.18;0.90;;;;;;;;;;4878767;29;20048;-70
2022/10/24 07:23:28;;;;;;;4.13;0.75;;;;;;;;;;4878193;29;20074;-69
2022/10/24 07:25:54;;;;;;;2.88;0.70;;;;;;;;;;4881100;29;20046;-69
2022/10/24 07:28:20;;;;;;;3.45;0.70;;;;;;;;;;4882330;29;20045;-69
2022/10/24 07:30:46;;;;;;;5.53;1.05;;;;;;;;;;4881198;29;20057;-69
2022/10/24 07:33:15;;;;;;;2.63;0.68;;;;;;;;;;4881041;29;20060;-71
2022/10/24 07:35:42;;;;;;;6.30;0.80;;;;;;;;;;4882271;29;20061;-70
2022/10/24 07:38:08;;;;;;;3.92;0.85;;;;;;;;;;4882232;29;20140;-70
2022/10/24 07:40:34;;;;;;;4.03;0.93;;;;;;;;;;4881665;29;20048;-70
2022/10/24 07:43:00;;;;;;;4.13;0.73;;;;;;;;;;4882221;29;20053;-70
2022/10/24 07:45:28;;;;;;;2.75;0.65;;;;;;;;;;4881051;29;20092;-70
2022/10/24 07:47:55;;;;;;;3.58;0.70;;;;;;;;;;4882133;29;20049;-70
2022/10/24 07:50:21;;;;;;;4.20;0.80;;;;;;;;;;4882748;29;20208;-71
2022/10/24 07:52:47;;;;;;;6.03;0.95;;;;;;;;;;4881205;29;20433;-70
2022/10/24 07:55:13;;;;;;;3.53;0.60;;;;;;;;;;4880840;29;20049;-70
2022/10/24 07:57:39;;;;;;;6.20;0.70;;;;;;;;;;4865503;29;20092;-70
2022/10/24 08:00:05;;;;;;;5.07;0.70;;;;;;;;;;4881873;29;20060;-69
2022/10/24 08:02:32;;;;;;;4.22;0.70;;;;;;;;;;4880559;29;20049;-70
2022/10/24 08:04:58;;;;;;;3.67;0.60;;;;;;;;;;4881923;29;20057;-69
2022/10/24 08:07:24;;;;;;;3.15;0.60;;;;;;;;;;4880678;29;20091;-69
2022/10/24 08:09:50;;;;;;;1.95;0.77;;;;;;;;;;4879963;29;20067;-69
2022/10/24 08:12:17;;;;;;;5.07;1.05;;;;;;;;;;4881947;29;20048;-70
2022/10/24 08:14:43;;;;;;;2.17;0.50;;;;;;;;;;4880580;29;20056;-68
2022/10/24 08:17:10;;;;;;;5.38;0.80;;;;;;;;;;4865205;29;20061;-69
2022/10/24 08:19:40;;;;;;;5.20;0.70;;;;;;;;;;4881686;29;20109;-69
2022/10/24 08:22:08;;;;;;;2.60;0.60;;;;;;;;;;4880516;29;20116;-69
2022/10/24 08:24:34;;;;;;;3.45;0.70;;;;;;;;;;4881540;29;20057;-69
2022/10/24 08:27:00;;;;;;;3.17;0.70;;;;;;;;;;4881239;29;20059;-70
2022/10/24 08:29:26;;;;;;;4.18;0.68;;;;;;;;;;4880165;29;20064;-72
2022/10/24 08:31:53;;;;;;;3.40;0.88;;;;;;;;;;4879707;29;20199;-70
2022/10/24 08:34:20;;;;;;;1.65;0.60;;;;;;;;;;4880540;29;20052;-72
2022/10/24 08:36:47;;;;;;;3.13;0.70;;;;;;;;;;4880764;29;20100;-70
2022/10/24 08:39:13;;;;;;;3.65;0.80;;;;;;;;;;4879250;29;20136;-70
2022/10/24 08:41:45;;;;;;;2.60;0.60;;;;;;;;;;4880614;29;20522;-70
2022/10/24 08:44:22;;;;;;;3.28;0.50;;;;;;;;;;4878368;29;20053;-71
2022/10/24 08:46:51;;;;;;;4.75;0.60;;;;;;;;;;4879883;29;20049;-70
2022/10/24 08:49:21;;;;;;;2.92;0.60;;;;;;;;;;4879633;29;20394;-71
2022/10/24 08:51:51;;;;;;;4.07;0.70;;;;;;;;;;4880038;29;20139;-72
2022/10/24 08:54:21;;;;;;;2.40;0.77;;;;;;;;;;4877137;29;20052;-70
2022/10/24 08:56:47;;;;;;;5.80;1.10;;;;;;;;;;4880329;29;20060;-70
2022/10/24 08:59:14;;;;;;;7.45;1.40;;;;;;;;;;4876861;29;20049;-70
2022/10/24 09:01:43;;;;;;;4.90;0.68;;;;;;;;;;4880885;29;20117;-71
2022/10/24 09:04:10;;;;;;;5.60;1.13;;;;;;;;;;4879482;29;20391;-73
2022/10/24 09:06:36;;;;;;;4.80;0.60;;;;;;;;;;4879518;29;20053;-71
2022/10/24 09:09:04;;;;;;;4.00;0.60;;;;;;;;;;4878578;29;20139;-69
2022/10/24 09:11:33;;;;;;;2.88;0.60;;;;;;;;;;4877351;29;20052;-70
2022/10/24 09:14:01;;;;;;;3.65;1.08;;;;;;;;;;4878713;29;20052;-70
2022/10/24 09:16:27;;;;;;;3.95;0.60;;;;;;;;;;4878881;29;20557;-70
2022/10/24 09:18:54;;;;;;;4.03;0.60;;;;;;;;;;4879785;29;20124;-69
2022/10/24 09:21:21;;;;;;;5.28;0.63;;;;;;;;;;4879914;29;20103;-69
2022/10/24 09:23:48;;;;;;;4.85;0.90;;;;;;;;;;4878228;29;20049;-68
2022/10/24 09:26:17;;;;;;;3.80;0.50;;;;;;;;;;4879797;29;20196;-69
2022/10/24 09:28:43;;;;;;;3.10;0.60;;;;;;;;;;4877189;29;20048;-69
2022/10/24 09:31:14;;;;;;;4.18;1.15;;;;;;;;;;4879785;29;20060;-70
2022/10/24 09:33:41;;;;;;;6.25;0.90;;;;;;;;;;4879493;29;20088;-69
2022/10/24 09:36:12;;;;;;;4.20;0.60;;;;;;;;;;4879485;29;20048;-68
2022/10/24 09:38:39;;;;;;;6.90;0.70;;;;;;;;;;4876931;29;20053;-68
2022/10/24 09:41:26;;;;;;;2.67;0.80;;;;;;;;;;4880035;29;20372;-68
2022/10/24 09:43:55;;;;;;;2.53;0.50;;;;;;;;;;4885471;29;20497;-68
2022/10/24 09:46:23;;;;;;;4.72;0.80;;;;;;;;;;4878178;29;20063;-69
2022/10/24 09:48:52;;;;;;;6.03;0.60;;;;;;;;;;4875674;29;20064;-70
2022/10/24 09:51:20;;;;;;;5.22;0.90;;;;;;;;;;4875404;29;20055;-69
2022/10/24 09:54:05;;;;;;;3.70;0.60;;;;;;;;;;4876182;29;20041;-69
2022/10/24 09:56:41;;;;;;;5.47;0.65;;;;;;;;;;4877910;29;20092;-68
2022/10/24 09:59:27;;;;;;;4.35;0.70;;;;;;;;;;4878931;29;20045;-69
2022/10/24 10:01:53;;;;;;;4.55;0.70;;;;;;;;;;4876149;29;20053;-69
2022/10/24 10:04:19;;;;;;;4.10;0.73;;;;;;;;;;4875647;29;20418;-69
2022/10/24 10:06:47;;;;;;;2.25;0.55;;;;;;;;;;4879228;29;20060;-70
2022/10/24 10:09:14;;;;;;;3.22;0.57;;;;;;;;;;4878701;29;20103;-69
2022/10/24 10:11:40;;;;;;;4.22;0.60;;;;;;;;;;4878994;29;20414;-69
2022/10/24 10:14:18;;;;;;;5.72;0.80;;;;;;;;;;4877575;29;20101;-69
2022/10/24 10:16:45;;;;;;;4.70;0.80;;;;;;;;;;4877814;29;20041;-69
2022/10/24 10:19:20;;;;;;;3.03;0.50;;;;;;;;;;4875504;29;20136;-70
2022/10/24 10:21:56;;;;;;;4.85;0.60;;;;;;;;;;4862735;29;20482;-69
2022/10/24 10:24:27;;;;;;;3.85;0.50;;;;;;;;;;4879319;29;20076;-70
2022/10/24 10:26:53;;;;;;;2.17;0.63;;;;;;;;;;4876891;29;20045;-69
2022/10/24 10:29:19;;;;;;;3.88;0.60;;;;;;;;;;4878159;29;20052;-69
2022/10/24 10:31:58;;;;;;;3.50;0.60;;;;;;;;;;4879125;29;20125;-70
2022/10/24 10:34:40;;;;;;;3.38;0.50;;;;;;;;;;4879360;29;20195;-69
2022/10/24 10:37:06;;;;;;;2.35;0.52;;;;;;;;;;4869644;29;20458;-70
2022/10/24 10:39:38;;;;;;;2.50;0.50;;;;;;;;;;4878690;29;20052;-70
2022/10/24 10:42:15;;;;;;;3.08;0.45;;;;;;;;;;4879036;29;20053;-70
2022/10/24 10:44:44;;;;;;;2.28;0.40;;;;;;;;;;4878181;29;20061;-70
2022/10/24 10:47:19;;;;;;;4.28;0.40;;;;;;;;;;4874731;29;20053;-72
2022/10/24 10:49:47;;;;;;;1.88;0.60;;;;;;;;;;4875823;29;20275;-72
2022/10/24 10:52:13;;;;;;;2.30;0.40;;;;;;;;;;4875887;29;20093;-70
2022/10/24 10:54:46;;;;;;;2.72;0.60;;;;;;;;;;4878135;29;20494;-69
2022/10/24 10:57:20;;;;;;;2.35;0.40;;;;;;;;;;4876643;29;20055;-70
2022/10/24 11:00:10;;;;;;;3.45;0.45;;;;;;;;;;4881073;29;20055;-70
2022/10/24 11:02:48;;;;;;;1.48;0.35;;;;;;;;;;4871861;29;20046;-70
2022/10/24 11:05:32;;;;;;;3.55;0.50;;;;;;;;;;4880073;29;20056;-69
2022/10/24 11:08:17;;;;;;;3.05;0.50;;;;;;;;;;4881023;29;20048;-69
2022/10/24 11:10:49;;;;;;;3.83;0.40;;;;;;;;;;4881014;29;20118;-69
2022/10/24 11:13:18;;;;;;;2.25;0.60;;;;;;;;;;4887204;29;20084;-69
2022/10/24 11:15:46;;;;;;;2.05;0.38;;;;;;;;;;4880869;29;20421;-67
2022/10/24 11:18:12;;;;;;;0.70;0.30;;;;;;;;;;4879895;29;20113;-69
2022/10/24 11:20:52;;;;;;;2.08;0.30;;;;;;;;;;4881226;29;20053;-69
2022/10/24 11:23:41;;;;;;;4.68;0.40;;;;;;;;;;4879443;29;20049;-69
2022/10/24 11:26:10;;;;;;;3.58;0.47;;;;;;;;;;4876140;29;20494;-69
2022/10/24 11:28:58;;;;;;;3.72;0.60;;;16.70;99.90;;;;;;4880884;29;20491;-70
2022/10/24 11:31:29;;;;;;;1.33;0.32;;;16.70;99.90;;;;;;4881139;29;20052;-70
2022/10/24 11:34:00;;;;;;;4.40;0.88;;;16.70;99.90;;;;;;4879616;29;20494;-70
2022/10/24 11:36:29;;;;;;;2.20;0.50;;;16.70;99.90;;;;;;4880272;29;20101;-70
2022/10/24 11:39:02;;;;;;;2.90;0.65;;;16.80;99.90;;;;;;4880284;29;20554;-69
2022/10/24 11:41:28;;;;;;;3.20;0.40;;;16.80;99.90;;;;;;4881738;29;20045;-70
2022/10/24 11:43:55;;;;;;;2.35;0.40;;;16.80;99.90;;;;;;4880337;29;20054;-70
2022/10/24 11:46:33;;;;;;;3.15;0.50;;;16.80;99.90;;;;;;4880427;29;20076;-69
2022/10/24 11:49:21;;;;;;;5.07;0.47;;;16.80;99.90;;;;;;4880339;29;20109;-70
2022/10/24 11:51:53;;;;;;;2.95;0.60;;;16.80;99.90;;;;;;4881091;29;20045;-70
2022/10/24 11:54:33;;;;;;;1.13;0.32;;;16.80;99.90;;;;;;4864697;29;20072;-71
2022/10/24 11:57:03;;;;;;;2.97;0.38;;;16.70;99.90;;;;;;4875865;29;20109;-70
2022/10/24 11:59:29;;;;;;;1.88;0.40;;;16.80;99.90;;;;;;4877216;29;20150;-71
2022/10/24 12:01:55;;;;;;;1.35;0.30;;;16.70;99.90;;;;;;4878559;29;20064;-70
2022/10/24 12:04:57;;;;;;;4.38;0.60;;;16.70;99.90;;;;;;4878964;29;20057;-71
2022/10/24 12:07:36;;;;;;;2.35;0.47;;;16.70;99.90;;;;;;4879187;29;20051;-71
2022/10/24 12:10:26;;;;;;;1.98;0.50;;;16.70;99.90;;;;;;4879143;29;20057;-70
2022/10/24 12:13:08;;;;;;;3.10;0.63;;;16.70;99.90;;;;;;4879199;29;20056;-70
2022/10/24 12:15:34;;;;;;;2.97;0.32;;;16.70;99.90;;;;;;4878667;29;20144;-70
2022/10/24 12:18:10;;;;;;;4.68;0.40;;;16.70;99.90;;;;;;4878910;29;20077;-69
2022/10/24 12:20:38;;;;;;;2.30;0.40;;;16.60;99.90;;;;;;4877987;29;20200;-70
2022/10/24 12:23:05;;;;;;;1.73;0.30;;;16.60;99.90;;;;;;4879501;29;20068;-69
2022/10/24 12:25:36;;;;;;;3.08;0.50;;;16.60;99.90;;;;;;4878943;29;20484;-69
2022/10/24 12:28:16;;;;;;;3.90;0.35;;;16.60;99.90;;;;;;4879972;29;20049;-70
2022/10/24 12:31:02;;;;;;;2.60;0.47;;;16.60;99.90;;;;;;4878042;29;20052;-71
2022/10/24 12:33:28;;;;;;;1.92;0.30;;;16.60;99.90;;;;;;4879727;29;20056;-70
2022/10/24 12:35:57;;;;;;;2.72;0.30;;;16.60;99.90;;;;;;4879990;29;20040;-70
2022/10/24 12:38:26;;;;;;;2.60;0.40;;;16.70;99.90;;;;;;4879205;29;20127;-70
2022/10/24 12:41:29;;;;;;;3.17;0.30;;;16.70;99.90;;;;;;4878743;29;20053;-71
2022/10/24 12:44:23;;;;;;;0.60;0.30;;;16.70;99.90;;;;;;4874784;29;20078;-70
2022/10/24 12:46:52;;;;;;;2.70;0.30;;;16.70;99.90;;;;;;4878535;29;20081;-71
2022/10/24 12:49:28;;;;;;;2.80;0.30;;;16.60;99.90;;;;;;4879043;29;20121;-70
2022/10/24 12:51:55;;;;;;;1.98;0.43;;;16.60;99.90;;;;;;4876392;29;20470;-71
2022/10/24 12:54:43;;;;;;;1.95;0.50;;;16.60;99.90;;;;;;4878696;29;20097;-71
2022/10/24 12:57:12;;;;;;;1.02;0.50;;;16.60;99.90;;;;;;4878355;29;20049;-72
2022/10/24 12:59:48;;;;;;;5.65;0.50;;;16.50;99.90;;;;;;4879862;29;20867;-73
2022/10/24 13:02:20;;;;;;;2.28;0.40;;;16.50;99.90;;;;;;4876394;29;20512;-71
2022/10/24 13:04:55;;;;;;;3.13;0.60;;;16.50;99.90;;;;;;4878771;29;20053;-72
2022/10/24 13:07:28;;;;;;;2.03;0.55;;;16.60;99.90;;;;;;4861906;29;20114;-72
2022/10/24 13:10:36;;;;;;;4.13;0.75;;;16.50;99.90;;;;;;4876795;29;20417;-72
2022/10/24 13:13:20;;;;;;;3.65;0.40;;;16.50;99.90;;;;;;4859958;29;20053;-71
2022/10/24 13:16:02;;;;;;;2.42;0.40;;;16.50;99.90;;;;;;4877835;29;20052;-72
2022/10/24 13:18:50;;;;;;;3.10;0.50;;;16.40;99.90;;;;;;4878874;29;20048;-71
2022/10/24 13:21:32;;;;;;;1.58;0.30;;;16.30;99.90;;;;;;4877705;29;20049;-71
2022/10/24 13:24:15;;;;;;;2.40;0.63;;;16.30;99.90;;;;;;4877600;29;20390;-71
2022/10/24 13:26:45;;;;;;;0.90;0.50;;;16.20;99.90;;;;;;4878027;29;20053;-71
2022/10/24 13:29:35;;;;;;;3.70;0.40;;;16.20;99.90;;;;;;4879258;29;20085;-70
2022/10/24 13:32:03;;;;;;;1.95;0.40;;;16.20;99.90;;;;;;4847393;29;20148;-70
2022/10/24 13:34:49;;;;;;;2.17;0.32;;;16.30;99.90;;;;;;4879302;29;20052;-70
2022/10/24 13:37:36;;;;;;;2.63;0.40;;;16.40;99.90;;;;;;4883608;29;20113;-70
2022/10/24 13:40:09;;;;;;;2.42;0.52;;;16.50;99.90;;;;;;4876294;29;20045;-70
2022/10/24 13:42:39;;;;;;;1.90;0.45;;;16.50;99.90;;;;;;4876622;29;20506;-72
2022/10/24 13:45:26;;;;;;;3.33;0.50;;;16.50;99.90;;;;;;4878040;29;20052;-71
2022/10/24 13:48:16;;;;;;;1.48;0.40;;;16.50;99.90;;;;;;4878957;29;20045;-71
2022/10/24 13:51:01;;;;;;;2.33;0.50;;;16.50;99.90;;;;;;4876720;29;20053;-71
2022/10/24 13:53:33;;;;;;;3.50;0.80;;;16.40;99.90;;;;;;4877061;29;20076;-70
2022/10/24 13:56:07;;;;;;;2.90;0.50;;;16.30;99.90;;;;;;4877164;29;20477;-70
2022/10/24 13:58:43;;;;;;;1.98;0.50;;;16.40;99.90;;;;;;4879190;29;20049;-70
2022/10/24 14:01:28;;;;;;;4.30;0.60;;;16.30;99.90;;;;;;4878687;29;20061;-70
2022/10/24 14:03:56;;;;;;;5.68;0.57;;;16.30;99.90;;;;;;4876485;29;20128;-70
2022/10/24 14:06:30;;;;;;;1.98;0.40;;;16.20;99.90;;;;;;4878076;29;20533;-69
2022/10/24 14:09:00;;;;;;;1.73;0.43;;;16.20;99.90;;;;;;4876084;29;20048;-70
2022/10/24 14:11:28;;;;;;;3.17;0.52;;;16.30;99.90;;;;;;4878122;29;20106;-70
2022/10/24 14:13:56;;;;;;;2.20;0.50;;;16.30;99.90;;;;;;4877743;29;20382;-71
2022/10/24 14:16:28;;;;;;;1.63;0.40;;;16.20;99.90;;;;;;4878973;29;20052;-70
2022/10/24 14:19:23;;;;;;;2.63;0.35;;;16.20;99.90;;;;;;4876446;29;20116;-71
2022/10/24 14:21:49;;;;;;;1.05;0.50;;;16.20;99.90;;;;;;4878241;29;20064;-71
2022/10/24 14:24:18;;;;;;;2.20;0.40;;;16.10;99.90;;;;;;4878744;29;20041;-71
2022/10/24 14:26:46;;;;;;;4.38;0.40;;;16.10;99.90;;;;;;4878931;29;20070;-71
2022/10/24 14:29:32;;;;;;;2.08;0.70;;;16.10;99.90;;;;;;4878953;29;20412;-71
2022/10/24 14:32:01;;;;;;;2.63;0.30;;;16.10;99.90;;;;;;4876053;29;20547;-72